Time;durP1;ratioP1;P1;durP2;ratioP2;P2;SDS_P1;SDS_P2;PMS_P1;PMS_P2;Temp;Humidity;BMP_temperature;BMP_pressure;BME280_temperature;BME280_humidity;BME280_pressure;Samples;Min_cycle;Max_cycle;Signal;HPM_P1;HPM_P2
2021/09/19 00:02:30;;;;;;;34.92;21.48;;;;;;;13.85;100.00;101394.78;5183558;28;20087;-73
2021/09/19 00:05:00;;;;;;;31.17;19.70;;;;;;;13.82;100.00;101397.84;5197685;28;20032;-72
2021/09/19 00:07:31;;;;;;;35.47;20.83;;;;;;;13.79;100.00;101399.03;5184525;28;20051;-72
2021/09/19 00:10:04;;;;;;;34.90;20.23;;;;;;;13.78;100.00;101401.91;5184215;28;20041;-71
2021/09/19 00:12:35;;;;;;;38.33;20.05;;;;;;;13.75;100.00;101397.69;5185643;28;20109;-73
2021/09/19 00:15:08;;;;;;;39.67;22.55;;;;;;;13.72;100.00;101396.19;5183667;28;20081;-72
2021/09/19 00:17:39;;;;;;;35.60;20.80;;;;;;;13.70;100.00;101403.63;5187625;28;20053;-72
2021/09/19 00:20:11;;;;;;;32.63;20.63;;;;;;;13.67;100.00;101398.56;5190682;28;20107;-72
2021/09/19 00:22:41;;;;;;;36.03;19.77;;;;;;;13.65;100.00;101397.88;5187411;28;20021;-73
2021/09/19 00:25:13;;;;;;;35.83;21.30;;;;;;;13.61;100.00;101393.88;5190414;28;20022;-73
2021/09/19 00:27:43;;;;;;;33.08;20.63;;;;;;;13.58;100.00;101399.59;5188798;28;20021;-72
2021/09/19 00:30:14;;;;;;;34.72;21.45;;;;;;;13.58;100.00;101396.06;5196804;28;20394;-72
2021/09/19 00:32:45;;;;;;;39.90;21.60;;;;;;;13.56;100.00;101398.09;5183151;28;20030;-71
2021/09/19 00:35:16;;;;;;;37.40;22.85;;;;;;;13.53;100.00;101393.03;5190116;28;20784;-71
2021/09/19 00:37:46;;;;;;;35.53;21.35;;;;;;;13.49;100.00;101389.84;5178612;28;20036;-72
2021/09/19 00:40:17;;;;;;;38.17;22.48;;;;;;;13.45;100.00;101394.75;5187979;28;20030;-72
2021/09/19 00:42:48;;;;;;;42.47;21.70;;;;;;;13.42;100.00;101388.84;5182785;28;20453;-72
2021/09/19 00:45:21;;;;;;;36.40;22.05;;;;;;;13.39;100.00;101383.78;5187020;28;20258;-73
2021/09/19 00:47:51;;;;;;;41.92;23.30;;;;;;;13.34;100.00;101389.69;5189291;28;20026;-72
2021/09/19 00:50:24;;;;;;;39.17;21.50;;;;;;;13.34;100.00;101387.00;5187568;28;20025;-72
2021/09/19 00:52:55;;;;;;;38.22;21.33;;;;;;;13.31;100.00;101383.84;5184224;28;20526;-72
2021/09/19 00:55:26;;;;;;;36.53;21.67;;;;;;;13.29;100.00;101377.75;5184412;28;20166;-74
2021/09/19 00:57:57;;;;;;;34.72;20.92;;;;;;;13.27;100.00;101382.50;5188398;28;20507;-72
2021/09/19 01:00:29;;;;;;;36.72;21.23;;;;;;;13.25;100.00;101377.25;5189226;28;20494;-72
2021/09/19 01:03:00;;;;;;;37.42;21.77;;;;;;;13.24;100.00;101380.13;5184924;28;20093;-72
2021/09/19 01:05:33;;;;;;;39.83;21.42;;;;;;;13.22;100.00;101377.59;5183283;28;20038;-71
2021/09/19 01:08:04;;;;;;;39.50;22.42;;;;;;;13.18;100.00;101371.69;5187487;28;20061;-72
2021/09/19 01:10:35;;;;;;;41.20;23.73;;;;;;;13.17;100.00;101375.38;5189429;28;20652;-72
2021/09/19 01:13:07;;;;;;;34.70;21.35;;;;;;;13.18;100.00;101376.22;5187947;28;20034;-72
2021/09/19 01:15:39;;;;;;;33.50;21.10;;;;;;;13.14;100.00;101373.03;5183964;28;20021;-72
2021/09/19 01:18:10;;;;;;;35.83;20.52;;;;;;;13.13;100.00;101370.50;5183297;28;20018;-71
2021/09/19 01:20:40;;;;;;;35.10;21.05;;;;;;;13.11;100.00;101376.06;5195075;28;20057;-71
2021/09/19 01:23:32;;;;;;;40.03;21.58;;;;;;;13.09;100.00;101369.16;5182142;28;20056;-71
2021/09/19 01:26:04;;;;;;;37.47;20.83;;;;;;;13.07;100.00;101371.19;5185964;28;20083;-71
2021/09/19 01:28:50;;;;;;;36.15;20.95;;;;;;;13.06;100.00;101367.66;5196151;28;20596;-72
2021/09/19 01:31:21;;;;;;;34.95;19.85;;;;;;;13.03;100.00;101368.00;5194633;28;20112;-72
2021/09/19 01:33:53;;;;;;;36.97;21.10;;;;;;;13.04;100.00;101366.13;5184833;28;20092;-72
2021/09/19 01:36:24;;;;;;;37.05;21.95;;;;;;;13.01;100.00;101364.63;5179679;28;20018;-72
2021/09/19 01:38:54;;;;;;;33.88;20.30;;;;;;;13.00;100.00;101362.94;5175943;28;20039;-72
2021/09/19 01:41:26;;;;;;;32.55;18.75;;;;;;;12.99;100.00;101365.81;5190935;28;20026;-72
2021/09/19 01:43:56;;;;;;;34.42;20.30;;;;;;;12.98;100.00;101366.81;5183739;28;20018;-70
2021/09/19 01:46:27;;;;;;;38.85;20.30;;;;;;;12.98;100.00;101362.28;5190020;28;20380;-71
2021/09/19 01:48:58;;;;;;;31.55;18.85;;;;;;;12.94;100.00;101361.75;5175183;28;20034;-70
2021/09/19 01:51:29;;;;;;;34.40;19.85;;;;;;;12.93;100.00;101356.56;5196505;28;20635;-73
2021/09/19 01:53:59;;;;;;;37.38;21.52;;;;;;;12.90;100.00;101356.88;5182694;28;20030;-73
2021/09/19 01:56:30;;;;;;;36.35;20.88;;;;;;;12.87;100.00;101363.47;5196452;28;20391;-72
2021/09/19 01:59:01;;;;;;;37.70;20.75;;;;;;;12.87;100.00;101366.16;5196020;28;21012;-74
2021/09/19 02:01:31;;;;;;;35.85;21.67;;;;;;;12.86;100.00;101360.94;5186510;28;20279;-74
2021/09/19 02:04:02;;;;;;;36.08;20.50;;;;;;;12.82;100.00;101355.03;5176554;28;20060;-74
2021/09/19 02:06:33;;;;;;;43.55;20.40;;;;;;;12.79;100.00;101349.97;5176048;28;20033;-73
2021/09/19 02:09:04;;;;;;;36.90;19.85;;;;;;;12.77;100.00;101345.78;5175499;28;20072;-74
2021/09/19 02:11:35;;;;;;;34.78;19.52;;;;;;;12.73;100.00;101350.66;5174842;28;20032;-73
2021/09/19 02:14:06;;;;;;;35.65;19.98;;;;;;;12.69;100.00;101355.53;5188744;28;20099;-72
2021/09/19 02:16:37;;;;;;;41.72;21.48;;;;;;;12.66;100.00;101350.50;5177219;28;20018;-72
2021/09/19 02:19:07;;;;;;;33.25;19.25;;;;;;;12.65;100.00;101348.81;5187993;28;20026;-72
2021/09/19 02:21:38;;;;;;;35.65;20.58;;;;;;;12.65;100.00;101346.13;5189059;28;20052;-72
2021/09/19 02:24:09;;;;;;;34.95;20.00;;;;;;;12.63;100.00;101347.31;5184658;28;20510;-72
2021/09/19 02:26:40;;;;;;;36.42;19.90;;;;;;;12.62;100.00;101354.53;5194064;28;20124;-71
2021/09/19 02:29:10;;;;;;;39.45;19.75;;;;;;;12.60;100.00;101351.19;5196905;28;20716;-73
2021/09/19 02:31:41;;;;;;;34.90;21.02;;;;;;;12.60;100.00;101350.31;5195428;28;20033;-72
2021/09/19 02:34:11;;;;;;;34.95;21.20;;;;;;;12.59;100.00;101337.88;5191313;28;20021;-72
2021/09/19 02:36:42;;;;;;;38.83;20.55;;;;;;;12.57;100.00;101342.59;5181416;28;20048;-73
2021/09/19 02:39:12;;;;;;;35.25;20.15;;;;;;;12.54;100.00;101342.91;5191962;28;20034;-73
2021/09/19 02:41:43;;;;;;;35.65;21.13;;;;;;;12.52;100.00;101345.78;5180887;28;20045;-72
2021/09/19 02:44:13;;;;;;;31.83;20.67;;;;;;;12.49;100.00;101343.41;5190570;28;20467;-72
2021/09/19 02:46:44;;;;;;;36.95;20.75;;;;;;;12.46;100.00;101335.69;5187246;28;20025;-74
2021/09/19 02:49:14;;;;;;;40.53;21.20;;;;;;;12.45;100.00;101342.09;5185479;28;20084;-73
2021/09/19 02:51:45;;;;;;;35.72;21.25;;;;;;;12.42;100.00;101335.19;5190418;28;20040;-73
2021/09/19 02:54:15;;;;;;;35.72;20.95;;;;;;;12.40;100.00;101341.75;5192885;28;20037;-72
2021/09/19 02:56:46;;;;;;;37.10;22.02;;;;;;;12.38;100.00;101341.88;5189182;28;20025;-72
2021/09/19 02:59:18;;;;;;;36.65;20.58;;;;;;;12.34;100.00;101334.31;5186177;28;20025;-72
2021/09/19 03:01:48;;;;;;;35.45;21.13;;;;;;;12.31;100.00;101340.03;5187391;28;20577;-72
2021/09/19 03:04:19;;;;;;;32.85;20.65;;;;;;;12.29;100.00;101331.28;5192412;28;20065;-72
2021/09/19 03:06:50;;;;;;;35.55;21.58;;;;;;;12.25;100.00;101329.91;5191826;28;20025;-72
2021/09/19 03:09:20;;;;;;;34.55;20.67;;;;;;;12.23;100.00;101326.56;5186512;28;20036;-73
2021/09/19 03:11:51;;;;;;;36.17;22.25;;;;;;;12.19;100.00;101326.88;5185624;28;20105;-73
2021/09/19 03:14:22;;;;;;;35.70;21.35;;;;;;;12.16;100.00;101329.91;5190135;28;20029;-73
2021/09/19 03:16:52;;;;;;;36.47;22.15;;;;;;;12.15;100.00;101325.56;5192723;28;20092;-74
2021/09/19 03:19:23;;;;;;;49.50;23.15;;;;;;;12.16;100.00;101332.63;5187855;28;20029;-74
2021/09/19 03:21:53;;;;;;;42.40;22.85;;;;;;;12.15;100.00;101327.41;5194302;28;20116;-74
2021/09/19 03:24:24;;;;;;;34.40;21.23;;;;;;;12.15;100.00;101322.88;5188705;28;20116;-73
2021/09/19 03:26:55;;;;;;;37.63;22.20;;;;;;;12.15;100.00;101330.94;5185592;28;20029;-73
2021/09/19 03:29:25;;;;;;;38.63;23.02;;;;;;;12.14;100.00;101326.53;5198945;28;20017;-73
2021/09/19 03:31:56;;;;;;;41.03;23.67;;;;;;;12.13;100.00;101326.72;5191808;28;20026;-73
2021/09/19 03:34:26;;;;;;;44.10;22.60;;;;;;;12.12;100.00;101323.19;5192277;28;20422;-72
2021/09/19 03:36:57;;;;;;;38.90;21.13;;;;;;;12.11;100.00;101328.72;5178804;28;20365;-73
2021/09/19 03:39:27;;;;;;;40.50;23.70;;;;;;;12.10;100.00;101327.06;5190816;28;20032;-73
2021/09/19 03:41:58;;;;;;;38.58;22.17;;;;;;;12.07;100.00;101328.22;5181839;28;20365;-73
2021/09/19 03:44:28;;;;;;;39.40;21.42;;;;;;;12.05;100.00;101316.78;5190452;28;20037;-73
2021/09/19 03:46:59;;;;;;;39.25;22.15;;;;;;;12.03;100.00;101326.84;5189195;28;20125;-73
2021/09/19 03:49:31;;;;;;;42.40;22.67;;;;;;;12.01;100.00;101323.50;5184971;28;20494;-73
2021/09/19 03:52:02;;;;;;;45.15;23.33;;;;;;;12.01;100.00;101328.88;5186240;28;20106;-72
2021/09/19 03:54:33;;;;;;;41.50;22.75;;;;;;;12.00;100.00;101329.88;5191221;28;20567;-73
2021/09/19 03:57:03;;;;;;;41.70;23.27;;;;;;;11.99;100.00;101335.41;5191458;28;20475;-72
2021/09/19 03:59:34;;;;;;;46.00;24.15;;;;;;;11.97;100.00;101327.50;5185197;28;20021;-71
2021/09/19 04:02:04;;;;;;;43.45;23.42;;;;;;;11.96;100.00;101320.47;5185234;28;20026;-71
2021/09/19 04:04:35;;;;;;;42.95;23.67;;;;;;;11.94;100.00;101327.81;5188992;28;20038;-72
2021/09/19 04:07:05;;;;;;;38.22;23.17;;;;;;;11.89;100.00;101325.63;5190766;28;20129;-72
2021/09/19 04:09:35;;;;;;;40.83;23.20;;;;;;;11.89;100.00;101327.47;5186904;28;20029;-73
2021/09/19 04:12:06;;;;;;;49.10;24.77;;;;;;;11.87;100.00;101318.75;5184661;28;20534;-73
2021/09/19 04:14:37;;;;;;;41.40;23.58;;;;;;;11.83;100.00;101315.53;5186222;28;20755;-73
2021/09/19 04:17:07;;;;;;;40.95;24.27;;;;;;;11.82;100.00;101318.41;5191267;28;20025;-72
2021/09/19 04:19:37;;;;;;;42.67;24.40;;;;;;;11.79;100.00;101314.13;5188447;28;20373;-73
2021/09/19 04:22:08;;;;;;;43.33;24.02;;;;;;;11.80;100.00;101309.63;5189526;28;20125;-72
2021/09/19 04:24:39;;;;;;;46.35;23.60;;;;;;;11.78;100.00;101308.94;5190263;28;20045;-71
2021/09/19 04:27:09;;;;;;;41.47;23.80;;;;;;;11.77;100.00;101318.84;5184505;28;20029;-71
2021/09/19 04:29:40;;;;;;;40.80;23.48;;;;;;;11.76;100.00;101319.03;5183012;28;20465;-71
2021/09/19 04:32:11;;;;;;;43.67;25.55;;;;;;;11.75;100.00;101328.09;5189997;28;20096;-72
2021/09/19 04:34:41;;;;;;;49.85;25.05;;;;;;;11.74;100.00;101319.16;5192409;28;20036;-71
2021/09/19 04:37:13;;;;;;;43.78;24.63;;;;;;;11.72;100.00;101323.88;5176125;28;20026;-71
2021/09/19 04:39:45;;;;;;;43.60;24.13;;;;;;;11.70;100.00;101315.13;5188944;28;20034;-71
2021/09/19 04:42:16;;;;;;;44.83;25.10;;;;;;;11.70;100.00;101325.03;5180724;28;20502;-71
2021/09/19 04:44:46;;;;;;;43.60;24.60;;;;;;;11.68;100.00;101325.19;5188238;28;20026;-71
2021/09/19 04:47:17;;;;;;;57.50;26.50;;;;;;;11.67;100.00;101326.19;5176142;28;20260;-71
2021/09/19 04:49:47;;;;;;;42.58;24.27;;;;;;;11.65;100.00;101329.06;5181397;28;20036;-71
2021/09/19 04:52:18;;;;;;;49.60;23.95;;;;;;;11.63;100.00;101328.34;5182381;28;20553;-72
2021/09/19 04:54:50;;;;;;;42.20;25.75;;;;;;;11.61;100.00;101324.16;5187565;28;20034;-71
2021/09/19 04:57:20;;;;;;;44.35;23.83;;;;;;;11.58;100.00;101330.69;5189856;28;20025;-71
2021/09/19 04:59:51;;;;;;;51.70;25.95;;;;;;;11.56;100.00;101331.88;5186918;28;20486;-71
2021/09/19 05:02:21;;;;;;;45.88;26.13;;;;;;;11.52;100.00;101328.66;5188609;28;20026;-71
2021/09/19 05:08:38;;;;;;;50.63;28.40;;;;;;;11.48;100.00;101326.44;5189169;28;20041;-71
2021/09/19 05:11:09;;;;;;;48.03;26.17;;;;;;;11.49;100.00;101320.91;5177364;28;20029;-71
2021/09/19 05:13:39;;;;;;;42.60;25.15;;;;;;;11.50;100.00;101327.16;5188600;28;20021;-72
2021/09/19 05:16:10;;;;;;;48.20;26.35;;;;;;;11.50;100.00;101325.28;5185656;28;20060;-71
2021/09/19 05:18:40;;;;;;;45.22;25.50;;;;;;;11.53;100.00;101333.00;5193893;28;20030;-71
2021/09/19 05:21:11;;;;;;;43.97;25.35;;;;;;;11.53;100.00;101324.13;5185966;28;20028;-71
2021/09/19 05:23:42;;;;;;;44.80;25.17;;;;;;;11.53;100.00;101324.13;5178952;28;20479;-71
2021/09/19 05:26:12;;;;;;;49.92;26.88;;;;;;;11.57;100.00;101330.84;5176441;28;20479;-71
2021/09/19 05:28:43;;;;;;;53.10;26.42;;;;;;;11.59;100.00;101324.31;5183840;28;20242;-71
2021/09/19 05:31:13;;;;;;;44.65;25.25;;;;;;;11.61;100.00;101327.69;5197114;28;20356;-71
2021/09/19 05:33:46;;;;;;;42.55;24.95;;;;;;;11.64;100.00;101329.19;5189006;28;20084;-71
2021/09/19 05:36:16;;;;;;;51.40;25.63;;;;;;;11.67;100.00;101326.19;5189678;28;20029;-72
2021/09/19 05:38:47;;;;;;;45.03;26.48;;;;;;;11.71;100.00;101337.47;5186214;28;20021;-71
2021/09/19 05:41:17;;;;;;;47.30;25.75;;;;;;;11.74;100.00;101337.13;5182099;28;20080;-71
2021/09/19 05:43:48;;;;;;;42.08;24.48;;;;;;;11.77;100.00;101340.34;5187942;28;20021;-71
2021/09/19 05:46:18;;;;;;;45.20;25.20;;;;;;;11.83;100.00;101342.41;5183554;28;20036;-71
2021/09/19 05:48:49;;;;;;;43.70;24.40;;;;;;;11.87;100.00;101343.78;5184272;28;20087;-71
2021/09/19 05:51:21;;;;;;;45.35;24.38;;;;;;;11.91;100.00;101339.78;5182730;28;20475;-71
2021/09/19 05:53:52;;;;;;;49.15;25.63;;;;;;;11.98;100.00;101342.63;5196712;28;20537;-72
2021/09/19 05:56:22;;;;;;;49.17;24.95;;;;;;;12.05;100.00;101341.00;5190176;28;20014;-71
2021/09/19 05:58:54;;;;;;;39.75;24.75;;;;;;;12.12;100.00;101343.88;5189890;28;20183;-71
2021/09/19 06:01:25;;;;;;;47.45;25.50;;;;;;;12.15;100.00;101339.00;5184961;28;20025;-71
2021/09/19 06:03:55;;;;;;;49.72;26.42;;;;;;;12.23;100.00;101338.16;5197146;28;20108;-71
2021/09/19 06:06:26;;;;;;;44.85;26.58;;;;;;;12.31;100.00;101329.28;5190029;28;20485;-72
2021/09/19 06:08:56;;;;;;;45.05;27.45;;;;;;;12.42;100.00;101335.19;5184649;28;20902;-72
2021/09/19 06:11:27;;;;;;;44.08;26.42;;;;;;;12.58;100.00;101334.34;5189820;28;20485;-71
2021/09/19 06:13:57;;;;;;;45.92;26.33;;;;;;;12.75;100.00;101332.50;5187423;28;20394;-72
2021/09/19 06:16:28;;;;;;;39.90;24.52;;;;;;;12.99;100.00;101345.09;5200539;28;20049;-72
2021/09/19 06:18:58;;;;;;;41.88;23.92;;;;;;;13.20;100.00;101331.97;5200945;28;20036;-72
2021/09/19 06:21:29;;;;;;;39.90;22.58;;;;;;;13.39;100.00;101343.38;5200029;28;20570;-72
2021/09/19 06:23:59;;;;;;;37.85;23.42;;;;;;;13.61;100.00;101339.94;5201038;28;20435;-72
2021/09/19 06:26:30;;;;;;;36.17;20.55;;;;;;;13.67;100.00;101344.63;5187722;28;20511;-72
2021/09/19 06:29:00;;;;;;;40.22;23.52;;;;;;;13.73;100.00;101353.88;5189817;28;20398;-72
2021/09/19 06:31:31;;;;;;;38.40;23.27;;;;;;;13.83;100.00;101346.44;5201470;28;20029;-72
2021/09/19 06:34:01;;;;;;;35.63;22.33;;;;;;;13.97;100.00;101345.69;5201183;28;20506;-72
2021/09/19 06:36:32;;;;;;;35.40;22.52;;;;;;;14.10;100.00;101347.78;5183062;28;20030;-72
2021/09/19 06:39:02;;;;;;;37.25;22.10;;;;;;;14.19;100.00;101348.59;5180349;28;20036;-72
2021/09/19 06:41:33;;;;;;;34.55;21.65;;;;;;;14.18;100.00;101347.75;5183090;28;20060;-72
2021/09/19 06:44:04;;;;;;;36.05;22.58;;;;;;;14.15;100.00;101353.50;5193078;28;20052;-72
2021/09/19 06:46:34;;;;;;;37.50;23.27;;;;;;;14.18;100.00;101353.16;5179412;28;20034;-72
2021/09/19 06:49:05;;;;;;;38.78;23.58;;;;;;;14.32;100.00;101359.66;5193530;28;20120;-72
2021/09/19 06:51:35;;;;;;;34.42;22.42;;;;;;;14.48;100.00;101361.44;5199923;28;20171;-72
2021/09/19 06:54:06;;;;;;;35.15;21.40;;;;;;;14.62;100.00;101351.72;5199262;28;20029;-72
2021/09/19 06:56:36;;;;;;;40.83;24.33;;;;;;;14.73;100.00;101354.84;5179212;28;20354;-71
2021/09/19 06:59:07;;;;;;;39.72;23.88;;;;;;;14.92;100.00;101350.81;5179996;28;20052;-72
2021/09/19 07:01:37;;;;;;;37.35;23.15;;;;;;;15.37;100.00;101356.28;5187744;28;20029;-72
2021/09/19 07:04:08;;;;;;;33.78;21.08;;;;;;;15.85;100.00;101362.16;5196596;28;20041;-72
2021/09/19 07:06:38;;;;;;;29.90;19.45;;;;;;;16.22;100.00;101359.31;5178601;28;20022;-72
2021/09/19 07:09:09;;;;;;;31.05;20.65;;;;;;;16.43;100.00;101357.66;5183027;28;20471;-72
2021/09/19 07:11:39;;;;;;;32.95;20.27;;;;;;;16.52;100.00;101361.94;5187646;28;20519;-72
2021/09/19 07:14:10;;;;;;;32.17;19.58;;;;;;;16.76;100.00;101366.97;5191681;28;20112;-72
2021/09/19 07:16:41;;;;;;;30.67;20.73;;;;;;;17.07;100.00;101363.91;5191560;28;20014;-72
2021/09/19 07:19:12;;;;;;;30.10;19.67;;;;;;;17.21;100.00;101369.41;5185065;28;20745;-72
2021/09/19 07:21:42;;;;;;;32.55;19.50;;;;;;;17.31;100.00;101376.16;5198826;28;20021;-72
2021/09/19 07:24:13;;;;;;;29.77;19.25;;;;;;;17.30;100.00;101370.97;5187229;28;20391;-72
2021/09/19 07:26:43;;;;;;;32.08;18.50;;;;;;;17.20;100.00;101374.00;5197334;28;20056;-72
2021/09/19 07:29:14;;;;;;;28.58;19.60;;;;;;;17.16;100.00;101388.16;5189275;28;20052;-71
2021/09/19 07:31:47;;;;;;;28.83;18.73;;;;;;;17.22;100.00;101395.50;5186283;28;20079;-71
2021/09/19 07:34:17;;;;;;;34.30;19.85;;;;;;;17.09;100.00;101397.06;5187220;28;20534;-72
2021/09/19 07:36:48;;;;;;;26.67;18.52;;;;;;;16.93;100.00;101388.41;5192136;28;20025;-71
2021/09/19 07:39:19;;;;;;;27.55;18.70;;;;;;;16.82;100.00;101387.06;5191904;28;20029;-71
2021/09/19 07:41:53;;;;;;;34.92;19.95;;;;;;;16.82;100.00;101390.59;5182289;28;20038;-71
2021/09/19 07:44:24;;;;;;;32.15;19.75;;;;;;;16.86;100.00;101388.31;5179010;28;20108;-71
2021/09/19 07:46:55;;;;;;;29.42;19.70;;;;;;;17.25;100.00;101390.53;5187843;28;20033;-71
2021/09/19 07:49:25;;;;;;;27.67;19.20;;;;;;;17.76;100.00;101394.84;5198712;28;20065;-71
2021/09/19 07:51:56;;;;;;;26.52;17.65;;;;;;;18.21;100.00;101401.53;5199410;28;20018;-71
2021/09/19 07:54:27;;;;;;;23.85;17.60;;;;;;;18.49;100.00;101401.44;5178969;28;20030;-71
2021/09/19 07:56:57;;;;;;;27.25;18.38;;;;;;;18.81;100.00;101399.00;5190046;28;20448;-71
2021/09/19 07:59:28;;;;;;;23.73;17.15;;;;;;;19.15;100.00;101395.28;5185823;28;20032;-71
2021/09/19 08:01:58;;;;;;;26.70;16.05;;;;;;;19.62;100.00;101391.47;5198495;28;20047;-71
2021/09/19 08:04:29;;;;;;;22.63;15.57;;;;;;;20.05;100.00;101390.09;5185732;28;20103;-72
2021/09/19 08:06:59;;;;;;;21.55;15.20;;;;;;;20.12;100.00;101389.00;5197874;28;20033;-72
2021/09/19 08:09:30;;;;;;;22.60;15.20;;;;;;;20.24;100.00;101396.53;5190465;28;20032;-72
2021/09/19 08:12:01;;;;;;;18.92;14.25;;;;;;;20.29;100.00;101399.44;5180420;28;20036;-69
2021/09/19 08:14:33;;;;;;;20.65;14.40;;;;;;;20.27;100.00;101396.91;5197951;28;20096;-70
2021/09/19 08:17:04;;;;;;;19.65;14.32;;;;;;;20.38;100.00;101395.38;5185699;28;20040;-70
2021/09/19 08:19:34;;;;;;;19.55;13.75;;;;;;;20.42;100.00;101396.63;5186996;28;20030;-72
2021/09/19 08:22:05;;;;;;;24.88;13.98;;;;;;;20.48;100.00;101400.38;5191138;28;20054;-72
2021/09/19 08:24:35;;;;;;;20.83;14.10;;;;;;;20.37;100.00;101399.16;5190571;28;20157;-72
2021/09/19 08:27:07;;;;;;;20.63;12.98;;;;;;;20.38;100.00;101407.13;5183696;28;20029;-72
2021/09/19 08:29:38;;;;;;;18.98;12.90;;;;;;;20.59;100.00;101400.56;5197038;28;20422;-72
2021/09/19 08:32:08;;;;;;;18.80;12.63;;;;;;;20.84;100.00;101408.78;5190483;28;20056;-72
2021/09/19 08:34:42;;;;;;;17.40;11.85;;;;;;;21.10;100.00;101404.16;5190824;28;20518;-72
2021/09/19 08:37:13;;;;;;;19.75;13.25;;;;;;;21.46;100.00;101403.47;5178576;28;20061;-72
2021/09/19 08:39:43;;;;;;;18.50;12.65;;;;;;;21.53;100.00;101408.84;5190076;28;20066;-72
2021/09/19 08:42:14;;;;;;;22.13;12.88;;;;;;;21.39;100.00;101406.25;5181090;28;20025;-71
2021/09/19 08:44:45;;;;;;;19.58;12.68;;;;;;;21.35;100.00;101407.75;5190163;28;20056;-72
2021/09/19 08:47:15;;;;;;;19.88;12.30;;;;;;;21.43;100.00;101412.91;5190208;28;20423;-72
2021/09/19 08:49:46;;;;;;;20.63;12.05;;;;;;;21.48;100.00;101406.78;5184326;28;20037;-72
2021/09/19 08:52:16;;;;;;;16.63;12.15;;;;;;;21.42;100.00;101413.16;5178039;28;20555;-72
2021/09/19 08:54:47;;;;;;;14.35;10.93;;;;;;;21.27;100.00;101409.91;5189175;28;20495;-72
2021/09/19 08:57:17;;;;;;;13.85;10.40;;;;;;;21.31;100.00;101405.69;5192405;28;20013;-72
2021/09/19 08:59:50;;;;;;;18.63;11.25;;;;;;;21.37;100.00;101411.09;5197397;28;20731;-71
2021/09/19 09:02:22;;;;;;;19.17;11.80;;;;;;;21.53;100.00;101409.66;5194034;28;20026;-72
2021/09/19 09:04:55;;;;;;;17.77;11.57;;;;;;;21.68;100.00;101410.16;5176737;28;20071;-72
2021/09/19 09:07:25;;;;;;;16.08;11.30;;;;;;;22.01;100.00;101410.84;5180793;28;20033;-72
2021/09/19 09:09:57;;;;;;;20.10;11.77;;;;;;;22.19;100.00;101421.81;5185364;28;20143;-72
2021/09/19 09:12:28;;;;;;;16.35;11.50;;;;;;;22.35;100.00;101423.09;5196694;28;20120;-71
2021/09/19 09:15:00;;;;;;;15.52;10.70;;;;;;;22.38;100.00;101422.59;5196977;28;20108;-71
2021/09/19 09:17:30;;;;;;;18.85;11.05;;;;;;;22.65;100.00;101420.34;5189599;28;20049;-71
2021/09/19 09:20:03;;;;;;;15.98;10.80;;;;;;;22.52;100.00;101429.56;5191116;28;20099;-71
2021/09/19 09:22:35;;;;;;;13.77;10.38;;;;;;;22.26;100.00;101424.47;5187693;28;20456;-72
2021/09/19 09:25:09;;;;;;;11.80;9.70;;;;;;;21.83;100.00;101420.69;5177068;28;20030;-71
2021/09/19 09:27:42;;;;;;;14.18;8.55;;;;;;;21.40;100.00;101420.75;5188751;28;20427;-71
2021/09/19 09:30:23;;;;;;;13.90;8.63;;;;;;;21.37;100.00;101422.00;5196828;28;20021;-72
2021/09/19 09:33:03;;;;;;;14.05;10.38;;;;;;;21.24;100.00;101422.09;5195766;28;20490;-71
2021/09/19 09:35:41;;;;;;;12.93;8.77;;;;;;;21.48;100.00;101423.16;5187107;28;20022;-72
2021/09/19 09:38:23;;;;;;;11.93;8.00;;;;;;;21.50;100.00;101425.69;5178859;28;20029;-72
2021/09/19 09:40:57;;;;;;;12.18;7.97;;;;;;;21.97;100.00;101422.22;5185096;28;20026;-71
2021/09/19 09:43:29;;;;;;;11.88;8.80;;;;;;;22.28;100.00;101419.59;5189312;28;20026;-72
2021/09/19 09:46:09;;;;;;;11.05;8.40;;;;;;;22.49;100.00;101425.41;5176558;28;20033;-72
2021/09/19 09:48:41;;;;;;;11.93;8.18;;;;;;;22.68;100.00;101425.34;5175921;28;21208;-71
2021/09/19 09:51:21;;;;;;;9.00;7.65;;;;;;;22.99;100.00;101430.59;5176570;28;20100;-72
2021/09/19 09:53:58;;;;;;;13.07;7.85;;;;;;;22.89;100.00;101419.38;5189820;28;20025;-72
2021/09/19 09:56:29;;;;;;;10.40;7.43;;;;;;;23.00;100.00;101423.22;5187972;28;20101;-72
2021/09/19 09:59:01;;;;;;;11.48;7.80;;;;;;;22.65;100.00;101425.81;5188974;28;20052;-72
2021/09/19 10:01:31;;;;;;;17.15;7.82;;;;;;;22.38;100.00;101428.06;5175978;28;20521;-72
2021/09/19 10:04:03;;;;;;;14.88;8.77;;;;;;;22.17;100.00;101426.66;5189401;28;20042;-72
2021/09/19 10:06:34;;;;;;;10.60;7.03;;;;;;;22.21;100.00;101433.34;5174837;28;20037;-72
2021/09/19 10:09:06;;;;;;;10.32;7.60;;;;;;;22.32;100.00;101423.53;5193468;28;20029;-72
2021/09/19 10:11:37;;;;;;;10.48;8.10;;;;;;;22.42;100.00;101434.75;5196094;28;20025;-72
2021/09/19 10:14:08;;;;;;;10.93;7.82;;;;;;;22.51;100.00;101422.44;5188995;28;20070;-72
2021/09/19 10:16:38;;;;;;;11.18;8.40;;;;;;;22.61;100.00;101424.63;5176405;28;20018;-72
2021/09/19 10:19:09;;;;;;;11.13;6.97;;;;;;;22.77;100.00;101431.31;5175962;28;20438;-72
2021/09/19 10:21:45;;;;;;;13.10;7.25;;;;;;;22.63;100.00;101425.19;5187420;28;20025;-72
2021/09/19 10:24:17;;;;;;;9.23;6.53;;;;;;;22.58;100.00;101427.78;5175810;28;20025;-72
2021/09/19 10:27:13;;;;;;;10.02;7.40;;;;;;;22.62;100.00;101426.28;5192424;28;20361;-72
2021/09/19 10:29:45;;;;;;;9.38;6.53;;;;;;;22.44;100.00;101425.25;5195247;28;20022;-72
2021/09/19 10:32:40;;;;;;;8.45;6.20;;;;;;;22.43;100.00;101425.47;5187215;28;20041;-72
2021/09/19 10:35:17;;;;;;;9.40;6.15;;;;;;;22.20;100.00;101421.56;5195982;28;20037;-72
2021/09/19 10:37:51;;;;;;;11.77;6.57;;;;;;;22.37;100.00;101426.41;5196572;28;20133;-72
2021/09/19 10:40:32;;;;;;;8.77;6.53;;;;;;;22.55;100.00;101428.28;5186994;28;20030;-72
2021/09/19 10:43:09;;;;;;;8.90;5.95;;;;;;;22.54;100.00;101421.13;5193755;28;20677;-72
2021/09/19 10:45:43;;;;;;;11.68;6.82;;;;;;;22.52;100.00;101421.34;5182960;28;20036;-72
2021/09/19 10:48:18;;;;;;;10.27;6.35;;;;;;;22.48;100.00;101418.25;5175709;28;20026;-72
2021/09/19 10:51:01;;;;;;;14.88;7.20;;;;;;;22.63;100.00;101425.19;5193981;28;20022;-72
2021/09/19 10:53:32;;;;;;;7.78;5.78;;;;;;;22.88;100.00;101414.97;5189023;28;20028;-72
2021/09/19 10:56:04;;;;;;;8.02;5.35;;;;;;;23.14;100.00;101410.13;5193142;28;20367;-72
2021/09/19 10:58:45;;;;;;;9.38;5.05;;;;;;;23.41;100.00;101414.09;5179561;28;20042;-72
2021/09/19 11:01:18;;;;;;;9.10;5.80;;;;;;;23.52;100.00;101406.94;5179556;28;20087;-72
2021/09/19 11:04:00;;;;;;;12.50;6.82;;;;;;;23.39;100.00;101413.47;5181114;28;20097;-72
2021/09/19 11:06:39;;;;;;;8.57;6.40;;;;;;;23.47;100.00;101413.13;5190103;28;20331;-72
2021/09/19 11:09:22;;;;;;;10.43;5.78;;;;;;;23.44;100.00;101415.50;5192951;28;20051;-72
2021/09/19 11:12:14;;;;;;;8.60;6.03;;;;;;;23.79;100.00;101412.78;5193542;28;20045;-72
2021/09/19 11:15:02;;;;;;;5.57;4.82;;;;;;;24.21;100.00;101415.34;5188917;28;20807;-72
2021/09/19 11:17:34;;;;;;;8.10;5.35;;;;;;;24.51;100.00;101417.88;5187585;28;20032;-72
2021/09/19 11:20:11;;;;;;;13.60;5.32;;;;;;;24.31;100.00;101426.50;5196555;28;20033;-73
2021/09/19 11:22:46;;;;;;;6.07;5.15;;;;;;;24.25;100.00;101419.25;5188701;28;20055;-72
2021/09/19 11:25:19;;;;;;;7.23;4.77;;;;;;;24.27;100.00;101423.41;5197520;28;20096;-72
2021/09/19 11:27:51;;;;;;;6.80;4.63;;;;;;;24.10;100.00;101419.78;5187042;28;20076;-72
2021/09/19 11:30:28;;;;;;;5.50;4.13;;;;;;;23.96;100.00;101419.19;5192106;28;20029;-73